Time;durP1;ratioP1;P1;durP2;ratioP2;P2;SDS_P1;SDS_P2;PMS_P1;PMS_P2;Temp;Humidity;BMP_temperature;BMP_pressure;BME280_temperature;BME280_humidity;BME280_pressure;Samples;Min_cycle;Max_cycle;Signal;HPM_P1;HPM_P2
2022/01/23 00:00:19;;;;;;;50.47;21.45;;;5.20;99.90;;;;;;6767695;87;20264;-76
2022/01/23 00:10:20;;;;;;;47.45;20.52;;;5.20;99.90;;;;;;6772403;87;20250;-77
2022/01/23 00:20:21;;;;;;;52.70;22.27;;;5.40;99.90;;;;;;6768282;87;20201;-77
2022/01/23 00:40:26;;;;;;;53.03;22.60;;;5.20;99.90;;;;;;6766066;87;20380;-76
2022/01/23 00:50:30;;;;;;;54.28;21.95;;;5.30;99.90;;;;;;6759800;87;20967;-76
2022/01/23 01:00:31;;;;;;;51.63;22.02;;;5.20;99.90;;;;;;6768779;87;20179;-76
2022/01/23 01:10:40;;;;;;;55.15;23.75;;;5.20;99.90;;;;;;6771403;87;20590;-77
2022/01/23 01:41:00;;;;;;;54.30;22.27;;;5.10;99.90;;;;;;6786377;87;20311;-77
2022/01/23 01:51:03;;;;;;;54.95;22.70;;;5.20;99.90;;;;;;6773679;87;20508;-77
2022/01/23 02:02:36;;;;;;;53.80;22.55;;;5.20;99.90;;;;;;6774269;87;20229;-76
2022/01/23 02:53:27;;;;;;;52.42;22.10;;;5.10;99.90;;;;;;6777937;87;20172;-77
2022/01/23 03:03:23;;;;;;;52.22;21.15;;;5.10;99.90;;;;;;6776414;87;20207;-77
2022/01/23 03:33:44;;;;;;;57.47;22.40;;;5.10;99.90;;;;;;6773213;87;20673;-77
2022/01/23 03:43:45;;;;;;;55.72;22.23;;;5.10;99.90;;;;;;6764179;87;20319;-78
2022/01/23 03:53:46;;;;;;;57.88;23.33;;;5.00;99.90;;;;;;6769262;87;20202;-77
2022/01/23 04:03:46;;;;;;;51.90;21.80;;;5.10;99.90;;;;;;6766465;87;20204;-76
2022/01/23 04:13:58;;;;;;;57.58;23.10;;;5.00;99.90;;;;;;6773995;87;20500;-78
2022/01/23 05:04:58;;;;;;;51.85;21.15;;;5.00;99.90;;;;;;6768550;87;20184;-78
2022/01/23 05:14:59;;;;;;;50.37;21.13;;;5.00;99.90;;;;;;6772390;87;20678;-78
2022/01/23 05:25:09;;;;;;;48.67;21.27;;;5.00;99.90;;;;;;6782250;87;20519;-78
2022/01/23 05:35:13;;;;;;;51.65;21.35;;;4.90;99.90;;;;;;6783589;87;20227;-78
2022/01/23 05:45:15;;;;;;;51.35;20.92;;;5.00;99.90;;;;;;6773719;87;20210;-77
2022/01/23 05:55:16;;;;;;;49.45;21.33;;;4.90;99.90;;;;;;6775797;87;20213;-77
2022/01/23 06:05:16;;;;;;;48.55;21.20;;;5.10;99.90;;;;;;6777134;87;20192;-78
2022/01/23 06:15:18;;;;;;;49.97;21.67;;;5.10;99.90;;;;;;6777312;87;21036;-78
2022/01/23 06:25:20;;;;;;;51.65;21.92;;;4.90;99.90;;;;;;6777058;87;20200;-77
2022/01/23 06:35:20;;;;;;;59.33;23.27;;;4.90;99.90;;;;;;6774858;87;20681;-78
2022/01/23 06:45:22;;;;;;;48.72;21.30;;;5.00;99.90;;;;;;6774799;87;20258;-78
2022/01/23 06:55:22;;;;;;;52.13;20.67;;;5.00;99.90;;;;;;6774887;87;20216;-78
2022/01/23 07:05:23;;;;;;;48.67;20.65;;;5.10;99.90;;;;;;6774370;87;22232;-77
2022/01/23 07:15:23;;;;;;;53.65;21.45;;;5.10;99.90;;;;;;6775642;87;21073;-78
2022/01/23 07:25:24;;;;;;;56.80;22.08;;;5.00;99.90;;;;;;6776626;87;20192;-77
2022/01/23 07:35:24;;;;;;;55.55;22.55;;;4.90;99.90;;;;;;6777075;87;20962;-77
2022/01/23 07:45:25;;;;;;;53.77;22.17;;;5.00;99.90;;;;;;6774049;87;20342;-77
2022/01/23 07:55:26;;;;;;;50.40;20.33;;;4.90;99.90;;;;;;6773660;87;20583;-78
2022/01/23 08:05:27;;;;;;;49.75;20.52;;;5.20;99.90;;;;;;6771541;87;20198;-78
2022/01/23 08:15:27;;;;;;;49.53;21.08;;;5.10;99.90;;;;;;6774009;87;20215;-76
2022/01/23 08:25:30;;;;;;;49.88;20.25;;;5.30;99.90;;;;;;6767170;87;20765;-76
2022/01/23 08:35:31;;;;;;;51.33;21.10;;;5.10;99.90;;;;;;6767062;87;20267;-76
2022/01/23 08:45:31;;;;;;;53.60;21.58;;;5.10;99.90;;;;;;6767114;87;20239;-77
2022/01/23 08:55:33;;;;;;;51.45;20.55;;;5.20;99.90;;;;;;6760290;87;20310;-76
2022/01/23 09:05:33;;;;;;;45.72;19.77;;;5.40;99.90;;;;;;6765389;87;20204;-77
2022/01/23 09:15:34;;;;;;;49.83;21.00;;;5.30;99.90;;;;;;6770405;87;20675;-76
2022/01/23 09:25:35;;;;;;;51.70;20.10;;;5.70;99.90;;;;;;6775558;87;20214;-77
2022/01/23 09:35:35;;;;;;;43.83;19.55;;;5.50;99.90;;;;;;6766019;87;20204;-77
2022/01/23 09:45:38;;;;;;;44.30;20.12;;;5.60;99.90;;;;;;6765091;87;20698;-76
2022/01/23 09:55:40;;;;;;;46.22;20.37;;;5.50;99.90;;;;;;6760255;87;20300;-76
2022/01/23 10:05:41;;;;;;;45.38;19.67;;;5.70;99.90;;;;;;6763291;87;20176;-77
2022/01/23 10:15:42;;;;;;;45.63;18.92;;;5.70;99.90;;;;;;6762239;87;20187;-75
2022/01/23 10:25:43;;;;;;;47.23;20.07;;;5.90;99.90;;;;;;6764053;87;20192;-77
2022/01/23 10:36:02;;;;;;;46.85;19.73;;;6.20;99.90;;;;;;6763206;87;20578;-75
2022/01/23 10:56:52;;;;;;;48.38;20.67;;;6.30;99.90;;;;;;6766381;87;20195;-75
2022/01/23 11:07:00;;;;;;;42.00;18.27;;;6.50;99.90;;;;;;6761424;87;20659;-75
2022/01/23 11:27:22;;;;;;;44.00;19.90;;;6.20;99.90;;;;;;6776578;87;20247;-78
2022/01/23 11:37:23;;;;;;;45.00;20.05;;;6.50;99.90;;;;;;6768009;87;20196;-77
2022/01/23 11:57:45;;;;;;;43.97;19.80;;;6.90;99.90;;;;;;6768954;87;20172;-77
2022/01/23 12:08:27;;;;;;;41.42;17.50;;;6.90;99.90;;;;;;6767585;87;20240;-77
2022/01/23 12:18:30;;;;;;;37.15;16.65;;;7.00;99.90;;;;;;6767614;87;20473;-77
2022/01/23 12:28:33;;;;;;;42.17;18.48;;;7.10;99.90;;;;;;6770387;87;20211;-77
2022/01/23 12:38:39;;;;;;;43.63;18.00;;;6.90;99.90;;;;;;6772781;87;20249;-77
2022/01/23 12:48:43;;;;;;;40.55;18.20;;;7.00;99.90;;;;;;6770862;87;20219;-77
2022/01/23 12:58:59;;;;;;;41.40;17.00;;;6.90;99.90;;;;;;6783070;87;20176;-77
2022/01/23 13:09:28;;;;;;;41.60;18.00;;;7.10;99.90;;;;;;6766492;87;20187;-76
2022/01/23 13:30:22;;;;;;;34.20;16.00;;;7.40;99.90;;;;;;6721877;87;20251;-75
2022/01/23 13:40:34;;;;;;;40.28;18.00;;;7.30;99.90;;;;;;6761819;87;20194;-77
2022/01/23 14:01:31;;;;;;;45.05;19.20;;;7.50;99.90;;;;;;6762891;87;20293;-77
2022/01/23 14:11:32;;;;;;;44.25;19.33;;;7.50;99.90;;;;;;6764259;87;20216;-77
2022/01/23 14:21:41;;;;;;;43.90;19.37;;;7.40;99.90;;;;;;6762723;87;20282;-77
2022/01/23 14:31:43;;;;;;;42.70;17.55;;;7.40;99.90;;;;;;6764699;87;20175;-78
2022/01/23 14:41:46;;;;;;;40.00;17.00;;;7.40;99.90;;;;;;6767860;87;20241;-76
2022/01/23 14:51:47;;;;;;;31.37;14.68;;;7.30;99.90;;;;;;6767997;87;20195;-78
2022/01/23 15:01:47;;;;;;;36.67;15.70;;;7.20;99.90;;;;;;6768896;87;20195;-78
2022/01/23 15:11:50;;;;;;;32.20;13.80;;;7.20;99.90;;;;;;6770726;87;20293;-77
2022/01/23 15:21:50;;;;;;;29.95;13.85;;;7.20;99.90;;;;;;6767945;87;20906;-78
2022/01/23 15:31:51;;;;;;;32.05;14.13;;;7.00;99.90;;;;;;6761794;87;20184;-77
2022/01/23 15:41:51;;;;;;;25.43;11.17;;;6.90;99.90;;;;;;6771192;87;20658;-77
2022/01/23 15:51:52;;;;;;;19.00;9.00;;;6.90;99.90;;;;;;6769119;87;20508;-77
2022/01/23 16:01:53;;;;;;;15.93;6.77;;;6.90;99.90;;;;;;6772732;87;20782;-77
2022/01/23 16:11:53;;;;;;;10.50;5.67;;;6.70;99.90;;;;;;6771419;87;20500;-77
2022/01/23 16:21:55;;;;;;;15.70;7.47;;;6.50;99.90;;;;;;6771162;87;21116;-76
2022/01/23 16:31:59;;;;;;;15.18;6.85;;;6.50;99.90;;;;;;6765157;87;20231;-77
2022/01/23 16:41:59;;;;;;;14.80;6.60;;;6.60;99.90;;;;;;6771628;87;20216;-79
2022/01/23 16:52:00;;;;;;;17.55;7.90;;;6.40;99.90;;;;;;6768878;87;20204;-77
2022/01/23 17:02:00;;;;;;;18.02;7.90;;;6.40;99.90;;;;;;6767967;87;20226;-76
2022/01/23 17:12:01;;;;;;;16.65;7.55;;;6.30;99.90;;;;;;6763886;87;20262;-77
2022/01/23 17:22:02;;;;;;;15.50;6.97;;;6.50;99.90;;;;;;6768518;87;20214;-78
2022/01/23 17:32:09;;;;;;;12.55;5.90;;;6.40;99.90;;;;;;6765336;87;20638;-77
2022/01/23 17:42:11;;;;;;;17.62;8.10;;;6.10;99.90;;;;;;6768647;87;20222;-78
2022/01/23 17:52:12;;;;;;;20.17;9.10;;;6.30;99.90;;;;;;6770683;87;20218;-77
2022/01/23 18:02:15;;;;;;;21.80;8.70;;;6.30;99.90;;;;;;6771450;87;20192;-78
2022/01/23 18:12:15;;;;;;;17.37;7.68;;;6.30;99.90;;;;;;6770221;87;20357;-78
2022/01/23 18:22:16;;;;;;;16.02;8.05;;;6.30;99.90;;;;;;6775524;87;20200;-77
2022/01/23 18:32:18;;;;;;;17.98;8.23;;;6.30;99.90;;;;;;6774005;87;20738;-77
2022/01/23 18:42:19;;;;;;;17.02;7.93;;;6.30;99.90;;;;;;6756982;87;20185;-77
2022/01/23 18:52:20;;;;;;;10.70;4.97;;;6.20;99.90;;;;;;6766719;87;20250;-78
2022/01/23 19:02:26;;;;;;;10.75;4.40;;;6.20;99.90;;;;;;6775395;87;20219;-78
2022/01/23 19:12:28;;;;;;;8.77;3.97;;;6.20;99.90;;;;;;6774771;87;20750;-78
2022/01/23 19:22:30;;;;;;;8.43;3.53;;;6.10;99.90;;;;;;6756196;87;20210;-77
2022/01/23 19:32:33;;;;;;;8.57;3.87;;;6.00;99.90;;;;;;6754215;88;20298;-78
2022/01/23 19:42:47;;;;;;;8.38;4.10;;;6.00;99.90;;;;;;6760269;87;20188;-79
2022/01/23 19:52:48;;;;;;;7.62;4.07;;;5.90;99.90;;;;;;6760140;87;20187;-79
2022/01/23 20:02:49;;;;;;;9.23;4.30;;;6.00;99.90;;;;;;6760318;87;20728;-79
2022/01/23 20:12:52;;;;;;;10.75;4.68;;;5.90;99.90;;;;;;6759248;88;20176;-78
2022/01/23 20:22:53;;;;;;;8.00;4.28;;;5.80;99.90;;;;;;6763370;88;20852;-78
2022/01/23 20:32:54;;;;;;;9.77;4.30;;;5.80;99.90;;;;;;6755342;88;20612;-80
2022/01/23 20:42:55;;;;;;;9.20;4.80;;;5.90;99.90;;;;;;6759403;87;20191;-79
2022/01/23 21:02:58;;;;;;;9.43;4.32;;;5.70;99.90;;;;;;6761439;87;20220;-79
2022/01/23 21:12:59;;;;;;;8.00;3.85;;;5.70;99.90;;;;;;6761251;88;20219;-78
2022/01/23 21:23:38;;;;;;;8.55;3.62;;;5.60;99.90;;;;;;6758528;87;20212;-79
2022/01/23 21:43:53;;;;;;;8.48;4.12;;;5.50;99.90;;;;;;6759005;88;20699;-79
2022/01/23 21:53:53;;;;;;;5.90;3.35;;;5.60;99.90;;;;;;6758921;87;20176;-80
2022/01/23 22:03:54;;;;;;;4.62;2.80;;;5.50;99.90;;;;;;6759739;87;20215;-79
2022/01/23 22:34:14;;;;;;;5.53;2.53;;;5.30;99.90;;;;;;6758727;88;20260;-78
2022/01/23 22:44:17;;;;;;;5.00;2.35;;;5.30;99.90;;;;;;6760461;88;20209;-77
2022/01/23 22:54:20;;;;;;;4.62;2.50;;;5.30;99.90;;;;;;6759732;87;20212;-78
2022/01/23 23:04:20;;;;;;;3.58;2.03;;;5.30;99.90;;;;;;6755870;87;20204;-78
2022/01/23 23:14:22;;;;;;;3.72;2.15;;;5.20;99.90;;;;;;6758399;87;20600;-78
2022/01/23 23:24:25;;;;;;;3.28;1.70;;;5.20;99.90;;;;;;6758535;87;20179;-78
2022/01/23 23:34:26;;;;;;;4.35;1.80;;;5.20;99.90;;;;;;6759253;87;20325;-78
2022/01/23 23:44:32;;;;;;;2.40;1.20;;;5.20;99.90;;;;;;6758860;87;20187;-78
2022/01/23 23:54:33;;;;;;;3.13;1.70;;;5.10;99.90;;;;;;6760595;87;20188;-78
